Time;durP1;ratioP1;P1;durP2;ratioP2;P2;SDS_P1;SDS_P2;PMS_P1;PMS_P2;Temp;Humidity;BMP_temperature;BMP_pressure;BME280_temperature;BME280_humidity;BME280_pressure;Samples;Min_cycle;Max_cycle;Signal;HPM_P1;HPM_P2
2022/04/28 00:00:35;;;;;;;11.03;6.30;;;;;;;;;;5029165;28;20219;-75
2022/04/28 00:03:03;;;;;;;10.70;6.03;;;;;;;;;;5033320;28;20732;-76
2022/04/28 00:05:28;;;;;;;10.17;6.40;;;;;;;;;;4993992;28;20223;-76
2022/04/28 00:08:00;;;;;;;11.10;5.97;;;;;;;;;;5004041;28;20729;-76
2022/04/28 00:10:25;;;;;;;10.13;6.23;;;;;;;;;;4990476;28;20223;-76
2022/04/28 00:12:51;;;;;;;8.17;5.60;;;;;;;;;;5008681;28;20226;-76
2022/04/28 00:15:23;;;;;;;9.43;6.30;;;;;;;;;;5042780;28;20259;-75
2022/04/28 00:17:51;;;;;;;9.30;6.17;;;;;;;;;;4999258;28;20227;-75
2022/04/28 00:20:16;;;;;;;8.60;6.00;;;;;;;;;;5018284;28;20210;-75
2022/04/28 00:22:44;;;;;;;9.43;5.60;;;;;;;;;;5002563;28;20264;-76
2022/04/28 00:25:14;;;;;;;11.47;6.07;;;;;;;;;;5022741;28;20235;-76
2022/04/28 00:27:40;;;;;;;9.30;6.00;;;;;;;;;;5020760;28;20685;-77
2022/04/28 00:30:08;;;;;;;9.57;6.40;;;;;;;;;;4986366;28;20226;-76
2022/04/28 00:32:37;;;;;;;10.07;6.37;;;;;;;;;;4996799;28;20239;-76
2022/04/28 00:35:02;;;;;;;11.60;6.50;;;;;;;;;;5006165;28;20701;-76
2022/04/28 00:37:32;;;;;;;10.00;5.80;;;;;;;;;;5031601;28;20260;-76
2022/04/28 00:39:57;;;;;;;9.57;6.30;;;;;;;;;;5006680;28;20231;-76
2022/04/28 00:42:26;;;;;;;8.50;5.83;;;;;;;;;;5037414;28;20269;-75
2022/04/28 00:44:54;;;;;;;10.10;5.60;;;;;;;;;;5017762;28;20223;-75
2022/04/28 00:47:22;;;;;;;11.40;6.07;;;;;;;;;;5014522;28;20658;-74
2022/04/28 00:52:37;;;;;;;8.50;6.00;;;;;;;;;;5021919;28;20235;-75
2022/04/28 00:55:06;;;;;;;9.77;6.40;;;;;;;;;;5013605;28;20278;-75
2022/04/28 00:57:33;;;;;;;14.77;6.30;;;;;;;;;;5011585;28;20218;-75
2022/04/28 00:59:59;;;;;;;9.83;6.07;;;;;;;;;;4998050;28;20223;-75
2022/04/28 01:02:27;;;;;;;13.33;6.97;;;;;;;;;;5006187;28;20277;-75
2022/04/28 01:04:57;;;;;;;11.73;6.80;;;;;;;;;;5049415;28;20303;-75
2022/04/28 01:07:26;;;;;;;9.40;6.63;;;;;;;;;;4990685;28;20215;-75
2022/04/28 01:09:51;;;;;;;9.27;6.17;;;;;;;;;;5022601;28;20766;-75
2022/04/28 01:12:21;;;;;;;12.50;6.43;;;;;;;;;;5007272;28;20231;-75
2022/04/28 01:14:51;;;;;;;10.47;6.87;;;;;;;;;;5005884;28;20227;-75
2022/04/28 01:17:21;;;;;;;8.60;6.77;;;;;;;;;;5004388;28;20935;-76
2022/04/28 01:19:57;;;;;;;8.67;6.27;;;;;;;;;;5024809;28;20213;-76
2022/04/28 01:22:26;;;;;;;10.87;6.83;;;;;;;;;;4992405;28;20599;-76
2022/04/28 01:24:54;;;;;;;13.47;7.10;;;;;;;;;;5006112;28;20642;-76
2022/04/28 01:27:20;;;;;;;12.43;7.03;;;;;;;;;;5024790;28;20606;-76
2022/04/28 01:29:48;;;;;;;10.40;7.00;;;;;;;;;;5031689;28;20225;-75
2022/04/28 01:32:13;;;;;;;12.43;7.23;;;;;;;;;;5005329;28;20232;-75
2022/04/28 01:34:43;;;;;;;8.63;7.00;;;;;;;;;;5029985;28;20220;-75
2022/04/28 01:37:11;;;;;;;11.80;6.80;;;;;;;;;;5022341;28;20737;-75
2022/04/28 01:39:38;;;;;;;10.70;7.13;;;;;;;;;;5006196;28;20306;-75
2022/04/28 01:42:05;;;;;;;9.90;7.30;;;;;;;;;;5004538;28;20318;-75
2022/04/28 01:44:32;;;;;;;10.87;7.13;;;;;;;;;;5018553;28;20219;-74
2022/04/28 01:47:01;;;;;;;10.47;7.77;;;;;;;;;;5047816;28;20223;-75
2022/04/28 01:49:46;;;;;;;14.93;7.60;;;;;;;;;;5011833;28;20249;-75
2022/04/28 01:55:33;;;;;;;12.60;7.73;;;;;;;;;;5046534;28;20708;-74
2022/04/28 01:58:24;;;;;;;11.83;7.47;;;;;;;;;;5046357;28;20224;-75
2022/04/28 02:01:10;;;;;;;9.07;7.00;;;;;;;;;;5009002;28;20277;-75
2022/04/28 02:03:39;;;;;;;10.00;6.87;;;;;;;;;;5014695;28;20228;-75
2022/04/28 02:06:04;;;;;;;10.93;7.03;;;;;;;;;;5010825;28;20228;-76
2022/04/28 02:08:32;;;;;;;11.67;6.80;;;;;;;;;;5019866;28;20215;-76
2022/04/28 02:11:00;;;;;;;10.67;6.93;;;;;;;;;;5039282;28;20327;-75
2022/04/28 02:13:48;;;;;;;9.83;6.57;;;;;;;;;;5035416;28;20229;-74
2022/04/28 02:16:36;;;;;;;13.40;7.07;;;;;;;;;;5019247;28;20232;-75
2022/04/28 02:19:15;;;;;;;13.30;7.73;;;;;;;;;;5016515;28;20786;-75
2022/04/28 02:21:41;;;;;;;13.03;7.20;;;;;;;;;;5031686;28;20224;-76
2022/04/28 02:24:07;;;;;;;11.00;7.47;;;;;;;;;;5032483;28;20227;-75
2022/04/28 02:26:35;;;;;;;11.77;7.30;;;;;;;;;;5013398;28;20235;-76
2022/04/28 02:29:02;;;;;;;12.33;7.90;;;;;;;;;;5020769;28;20616;-76
2022/04/28 02:31:35;;;;;;;12.13;7.40;;;;;;;;;;5017081;28;20223;-75
2022/04/28 02:34:00;;;;;;;13.03;7.80;;;;;;;;;;5006487;28;20600;-75
2022/04/28 02:36:38;;;;;;;11.13;7.80;;;;;;;;;;4999622;28;20226;-76
2022/04/28 02:39:06;;;;;;;13.50;7.93;;;;;;;;;;5024666;28;20220;-75
2022/04/28 02:41:34;;;;;;;11.87;7.30;;;;;;;;;;4988169;28;20224;-76
2022/04/28 02:44:01;;;;;;;9.80;6.97;;;;;;;;;;5020142;28;20259;-76
2022/04/28 02:46:31;;;;;;;14.97;8.00;;;;;;;;;;4984714;28;20243;-76
2022/04/28 02:49:01;;;;;;;13.07;7.80;;;;;;;;;;5013422;28;20220;-75
2022/04/28 02:51:34;;;;;;;10.93;7.83;;;;;;;;;;5026800;28;20243;-77
2022/04/28 02:54:04;;;;;;;12.57;7.70;;;;;;;;;;5011341;28;20228;-75
2022/04/28 02:56:37;;;;;;;10.93;7.23;;;;;;;;;;5004335;28;20604;-75
2022/04/28 02:59:06;;;;;;;12.53;7.53;;;;;;;;;;4985725;28;20227;-75
2022/04/28 03:01:36;;;;;;;11.10;7.17;;;;;;;;;;5034821;28;20311;-76
2022/04/28 03:04:03;;;;;;;10.67;8.03;;;;;;;;;;5022626;28;20728;-75
2022/04/28 03:12:02;;;;;;;10.43;7.57;;;;;;;;;;5018042;28;20244;-75
2022/04/28 03:14:30;;;;;;;11.87;8.03;;;;;;;;;;5035706;28;20233;-75
2022/04/28 03:16:55;;;;;;;9.97;7.40;;;;;;;;;;5015655;28;20235;-74
2022/04/28 03:19:23;;;;;;;11.60;7.53;;;;;;;;;;5021909;28;20216;-74
2022/04/28 03:21:48;;;;;;;7.93;7.13;;;;;;;;;;5039439;28;20330;-73
2022/04/28 03:24:14;;;;;;;10.23;7.30;;;;;;;;;;5022515;28;20289;-75
2022/04/28 03:26:41;;;;;;;10.67;7.40;;;;;;;;;;5036719;28;20228;-75
2022/04/28 03:29:12;;;;;;;11.17;7.83;;;;;;;;;;5026410;28;20299;-76
2022/04/28 03:31:39;;;;;;;10.83;8.47;;;;;;;;;;5027338;28;20250;-75
2022/04/28 03:34:13;;;;;;;13.57;7.33;;;;;;;;;;5020733;28;20224;-75
2022/04/28 03:36:51;;;;;;;11.87;8.10;;;;;;;;;;5016362;28;20322;-75
2022/04/28 03:39:22;;;;;;;13.10;7.90;;;;;;;;;;5034623;28;20220;-75
2022/04/28 03:41:49;;;;;;;13.80;7.70;;;;;;;;;;5035104;28;20228;-75
2022/04/28 03:44:20;;;;;;;13.77;8.00;;;;;;;;;;5001791;28;20219;-75
2022/04/28 03:46:45;;;;;;;12.17;8.00;;;;;;;;;;5039749;28;20258;-74
2022/04/28 03:49:11;;;;;;;12.37;8.10;;;;;;;;;;5016215;28;20232;-75
2022/04/28 03:51:39;;;;;;;15.40;8.23;;;;;;;;;;5030893;28;20232;-74
2022/04/28 03:54:05;;;;;;;14.00;8.30;;;;;;;;;;5028049;28;20216;-74
2022/04/28 03:56:35;;;;;;;12.97;8.10;;;;;;;;;;4987466;28;20326;-76
2022/04/28 03:59:06;;;;;;;12.40;8.30;;;;;;;;;;5009725;28;20315;-76
2022/04/28 04:01:51;;;;;;;10.27;8.00;;;;;;;;;;5011607;28;20219;-76
2022/04/28 04:04:17;;;;;;;12.23;8.47;;;;;;;;;;5014278;28;20223;-74
2022/04/28 04:06:47;;;;;;;12.70;8.73;;;;;;;;;;5012954;28;20314;-76
2022/04/28 04:09:36;;;;;;;13.63;8.10;;;;;;;;;;5042746;28;20226;-76
2022/04/28 04:12:05;;;;;;;13.17;8.43;;;;;;;;;;5028041;28;20219;-76
2022/04/28 04:14:55;;;;;;;13.43;8.90;;;;;;;;;;5032992;28;20219;-76
2022/04/28 04:17:23;;;;;;;12.90;8.43;;;;;;;;;;5030649;28;20219;-75
2022/04/28 04:19:51;;;;;;;12.00;8.77;;;;;;;;;;5024233;28;20602;-76
2022/04/28 04:22:17;;;;;;;13.83;8.33;;;;;;;;;;5029306;28;20228;-75
2022/04/28 04:24:45;;;;;;;12.70;8.87;;;;;;;;;;5032404;28;20234;-75
2022/04/28 04:27:15;;;;;;;12.47;8.13;;;;;;;;;;5026657;28;20281;-75
2022/04/28 04:32:55;;;;;;;13.00;8.23;;;;;;;;;;5017648;28;20215;-76
2022/04/28 04:35:25;;;;;;;10.10;8.30;;;;;;;;;;5026733;28;20220;-76
2022/04/28 04:37:54;;;;;;;13.97;8.37;;;;;;;;;;4993834;28;20223;-76
2022/04/28 04:40:23;;;;;;;11.93;8.07;;;;;;;;;;5045158;28;20216;-76
2022/04/28 04:42:51;;;;;;;11.23;8.10;;;;;;;;;;5001127;28;20208;-76
2022/04/28 04:45:17;;;;;;;11.53;7.60;;;;;;;;;;5019739;28;20216;-77
2022/04/28 04:47:57;;;;;;;8.43;7.57;;;;;;;;;;5007107;28;20219;-75
2022/04/28 04:50:45;;;;;;;10.13;7.23;;;;;;;;;;5023217;28;20235;-75
2022/04/28 04:53:30;;;;;;;11.03;7.03;;;;;;;;;;5041725;28;20281;-76
2022/04/28 04:55:57;;;;;;;8.83;7.50;;;;;;;;;;5033933;28;20318;-76
2022/04/28 04:58:28;;;;;;;8.33;7.50;;;;;;;;;;5020626;28;20255;-77
2022/04/28 05:00:55;;;;;;;9.37;7.67;;;;;;;;;;5026120;28;20236;-75
2022/04/28 05:03:26;;;;;;;8.93;7.47;;;;;;;;;;5030025;28;20220;-75
2022/04/28 05:06:01;;;;;;;11.17;8.27;;;;;;;;;;5042576;28;20685;-76
2022/04/28 05:08:40;;;;;;;10.63;7.13;;;;;;;;;;5014160;28;20245;-75
2022/04/28 05:11:10;;;;;;;9.43;7.57;;;;;;;;;;5031180;28;20223;-75
2022/04/28 05:13:43;;;;;;;10.67;7.97;;;;;;;;;;5008382;28;20220;-75
2022/04/28 05:16:15;;;;;;;10.23;7.77;;;;;;;;;;4983771;28;20600;-75
2022/04/28 05:18:59;;;;;;;9.57;7.57;;;;;;;;;;5000397;28;20224;-77
2022/04/28 05:21:47;;;;;;;11.17;7.70;;;;;;;;;;5006112;28;20232;-75
2022/04/28 05:24:31;;;;;;;11.07;8.83;;;;;;;;;;5015239;28;20749;-76
2022/04/28 05:26:58;;;;;;;14.03;9.23;;;;;;;;;;5025507;28;20220;-74
2022/04/28 05:29:43;;;;;;;11.47;9.13;;;;;;;;;;5012913;28;20256;-76
2022/04/28 05:32:27;;;;;;;11.60;9.20;;;;;;;;;;5057472;23;20234;-87
2022/04/28 05:34:58;;;;;;;18.90;16.90;;;;;;;;;;5027835;28;20223;-87
2022/04/28 05:37:24;;;;;;;19.87;16.73;;;;;;;;;;5007180;28;20439;-88
2022/04/28 05:39:50;;;;;;;15.07;11.97;;;;;;;;;;5039213;28;20287;-88
2022/04/28 05:42:18;;;;;;;10.80;9.20;;;;;;;;;;5038515;28;20757;-89
2022/04/28 05:47:29;;;;;;;12.57;8.50;;;;;;;;;;5043126;28;20227;-88
2022/04/28 05:49:55;;;;;;;13.93;8.43;;;;;;;;;;5021519;28;20219;-88
2022/04/28 05:52:22;;;;;;;10.93;8.83;;;;;;;;;;5037188;28;20224;-87
2022/04/28 05:54:54;;;;;;;13.87;9.40;;;;;;;;;;5016324;28;20223;-89
2022/04/28 05:57:20;;;;;;;12.17;9.33;;;;;;;;;;5040309;28;20231;-90
2022/04/28 05:59:46;;;;;;;13.93;8.83;;;;;;;;;;5040400;28;20219;-88
2022/04/28 06:02:31;;;;;;;13.87;9.57;;;;;;;;;;5060587;28;20238;-88
2022/04/28 06:04:57;;;;;;;20.07;9.93;;;;;;;;;;5042920;28;20220;-87
2022/04/28 06:07:23;;;;;;;11.53;9.13;;;;;;;;;;5041623;28;20283;-89
2022/04/28 06:09:53;;;;;;;13.63;9.80;;;;;;;;;;5043556;28;20211;-86
2022/04/28 06:12:26;;;;;;;15.77;9.13;;;;;;;;;;5043491;28;20210;-89
2022/04/28 06:15:14;;;;;;;13.93;9.50;;;;;;;;;;5038492;28;20211;-88
2022/04/28 06:17:46;;;;;;;12.97;9.73;;;;;;;;;;5026936;28;20235;-87
2022/04/28 06:20:12;;;;;;;13.47;9.17;;;;;;;;;;5040581;28;20227;-88
2022/04/28 06:22:47;;;;;;;10.00;9.00;;;;;;;;;;5071979;28;20243;-89
2022/04/28 06:25:13;;;;;;;15.87;9.80;;;;;;;;;;5021837;28;20305;-89
2022/04/28 06:27:39;;;;;;;11.83;9.07;;;;;;;;;;5004313;28;20620;-89
2022/04/28 06:30:05;;;;;;;14.33;9.47;;;;;;;;;;5035660;28;20220;-88
2022/04/28 06:32:31;;;;;;;11.10;8.17;;;;;;;;;;5040498;28;20216;-90
2022/04/28 06:35:15;;;;;;;9.63;6.90;;;;;;;;;;5056697;28;20227;-90
2022/04/28 06:37:41;;;;;;;9.53;6.80;;;;;;;;;;5024161;28;20227;-90
2022/04/28 06:40:11;;;;;;;11.57;6.70;;;;;;;;;;5039690;28;20230;-89
2022/04/28 06:42:39;;;;;;;10.53;6.10;;;;;;;;;;5008470;28;20230;-87
2022/04/28 06:45:31;;;;;;;7.03;6.00;;;;;;;;;;5045721;28;20235;-89
2022/04/28 06:48:07;;;;;;;8.97;5.67;;;;;;;;;;5057674;28;20227;-90
2022/04/28 06:50:39;;;;;;;10.43;5.40;;;;;;;;;;5040711;28;20262;-88
2022/04/28 06:53:23;;;;;;;12.70;5.67;;;;;;;;;;5027471;28;20697;-88
2022/04/28 06:55:56;;;;;;;10.13;4.73;;;;;;;;;;5008849;28;20235;-88
2022/04/28 06:58:23;;;;;;;10.80;4.77;;;;;;;;;;5020957;28;20716;-87
2022/04/28 07:00:50;;;;;;;10.20;4.57;;;;;;;;;;5022822;28;20227;-90
2022/04/28 07:03:18;;;;;;;11.57;4.40;;;;;;;;;;5022272;28;20230;-89
2022/04/28 07:05:45;;;;;;;7.97;4.87;;;;;;;;;;5006147;28;20250;-90
2022/04/28 07:08:11;;;;;;;10.83;4.63;;;;;;;;;;5021700;28;20283;-88
2022/04/28 07:10:43;;;;;;;9.93;4.90;;;;;;;;;;5023780;28;20223;-88
2022/04/28 07:13:11;;;;;;;6.63;4.30;;;;;;;;;;5004790;28;20228;-88
2022/04/28 07:15:55;;;;;;;8.77;5.07;;;;;;;;;;5043115;28;20242;-89
2022/04/28 07:18:22;;;;;;;11.50;5.03;;;;;;;;;;5029073;28;20736;-88
2022/04/28 07:20:51;;;;;;;8.77;5.23;;;;;;;;;;5012782;23;20634;-75
2022/04/28 07:23:16;;;;;;;7.27;3.60;;;;;;;;;;5029444;28;20220;-75
2022/04/28 07:25:48;;;;;;;10.27;4.60;;;;;;;;;;5027561;28;20224;-73
2022/04/28 07:28:15;;;;;;;8.40;5.10;;;;;;;;;;5003739;28;20216;-74
2022/04/28 07:31:03;;;;;;;8.23;5.20;;;;;;;;;;5042410;28;20234;-75
2022/04/28 07:34:03;;;;;;;10.97;4.90;;;;;;;;;;4996869;28;20247;-74
2022/04/28 07:36:47;;;;;;;7.17;4.43;;;;;;;;;;5033913;28;20474;-76
2022/04/28 07:39:28;;;;;;;6.57;4.07;;;;;;;;;;5033275;28;20232;-76
2022/04/28 07:42:19;;;;;;;9.10;4.40;;;;;;;;;;5030683;28;20216;-74
2022/04/28 07:44:54;;;;;;;9.17;4.13;;;;;;;;;;5008203;28;20228;-75
2022/04/28 07:51:11;;;;;;;9.23;4.13;;;;;;;;;;5043553;28;20274;-79
2022/04/28 07:53:38;;;;;;;9.57;3.90;;;;;;;;;;5035836;28;20231;-78
2022/04/28 07:56:10;;;;;;;8.53;4.53;;;;;;;;;;5008806;28;20228;-79
2022/04/28 07:58:39;;;;;;;8.60;4.27;;;;;;;;;;5013044;28;20224;-80
2022/04/28 08:01:28;;;;;;;7.47;4.10;;;;;;;;;;4992264;28;20224;-77
2022/04/28 08:03:57;;;;;;;9.83;3.83;;;;;;;;;;5014068;28;20231;-78
2022/04/28 08:06:23;;;;;;;9.73;4.17;;;;;;;;;;5031586;28;20288;-79
2022/04/28 08:08:48;;;;;;;7.00;3.60;;;;;;;;;;4999337;28;20303;-78
2022/04/28 08:15:01;;;;;;;8.20;4.50;;;;;;;;;;5064757;23;20238;-74
2022/04/28 08:17:29;;;;;;;9.07;4.13;;;;;;;;;;5034267;28;20224;-74
2022/04/28 08:19:55;;;;;;;7.83;4.20;;;;;;;;;;5046952;28;20222;-74
2022/04/28 08:22:20;;;;;;;8.17;3.67;;;;;;;;;;5031497;28;20368;-76
2022/04/28 08:24:47;;;;;;;7.03;3.50;;;;;;;;;;5015382;28;20224;-75
2022/04/28 08:27:13;;;;;;;5.77;3.47;;;;;;;;;;5002485;28;20250;-74
2022/04/28 08:29:39;;;;;;;7.13;3.97;;;;;;;;;;5022548;28;20230;-75
2022/04/28 08:32:19;;;;;;;6.43;3.50;;;;;;;;;;5008978;28;20227;-74
2022/04/28 08:34:44;;;;;;;8.67;3.80;;;;;;;;;;5040118;23;20241;-79
2022/04/28 08:37:10;;;;;;;7.37;3.30;;;;;;;;;;5054790;28;20226;-78
2022/04/28 08:39:37;;;;;;;7.07;3.47;;;;;;;;;;5035103;28;20215;-78
2022/04/28 08:42:04;;;;;;;6.17;3.20;;;;;;;;;;5016264;28;20893;-79
2022/04/28 08:44:30;;;;;;;7.23;3.53;;;;;;;;;;5039600;28;20258;-79
2022/04/28 08:47:16;;;;;;;6.17;2.77;;;;;;;;;;5006535;28;20223;-76
2022/04/28 08:49:50;;;;;;;6.40;3.00;;;;;;;;;;5018301;28;20254;-80
2022/04/28 08:52:48;;;;;;;7.83;3.37;;;;;;;;;;4966945;28;20226;-78
2022/04/28 08:55:29;;;;;;;7.87;3.03;;;;;;;;;;5032258;28;20280;-77
2022/04/28 08:57:55;;;;;;;5.93;3.07;;;;;;;;;;5042884;28;20282;-79
2022/04/28 09:00:22;;;;;;;9.07;3.87;;;;;;;;;;5024126;28;20244;-76
2022/04/28 09:03:22;;;;;;;7.00;3.43;;;;;;;;;;5031764;28;20211;-76
2022/04/28 09:06:24;;;;;;;7.53;3.73;;;;;;;;;;5034418;28;20239;-77
2022/04/28 09:09:13;;;;;;;5.90;3.00;;;;;;;;;;5025952;28;20227;-79
2022/04/28 09:15:47;;;;;;;7.73;3.40;;;;;;;;;;4998455;28;20577;-75
2022/04/28 09:18:19;;;;;;;6.20;3.30;;;;;;;;;;4957000;28;20209;-74
2022/04/28 09:20:45;;;;;;;8.00;3.23;;;;;;;;;;4958419;28;20244;-76
2022/04/28 09:23:13;;;;;;;9.97;4.10;;;;;;;;;;4958056;28;20228;-76
2022/04/28 09:25:45;;;;;;;6.87;3.73;;;;;;;;;;4967940;28;20221;-75
2022/04/28 09:28:14;;;;;;;7.97;3.50;;;;;;;;;;4969970;28;20756;-76
2022/04/28 09:30:45;;;;;;;7.70;3.27;;;;;;;;;;4972437;28;20224;-76
2022/04/28 09:33:30;;;;;;;7.87;3.40;;;;;;;;;;4988516;28;20238;-76
2022/04/28 09:36:29;;;;;;;8.63;3.70;;;;;;;;;;4960348;28;20645;-75
2022/04/28 09:39:05;;;;;;;8.10;3.97;;;;;;;;;;4991645;28;20220;-77
2022/04/28 09:44:35;;;;;;;8.07;4.00;;;;;;;;;;4972543;28;20233;-78
2022/04/28 09:47:10;;;;;;;7.23;3.90;;;;;;;;;;4993045;28;20229;-77
2022/04/28 09:49:41;;;;;;;6.10;3.90;;;;;;;;;;4998627;28;20268;-78
2022/04/28 09:52:25;;;;;;;8.63;3.87;;;;;;;;;;4978955;28;20281;-79
2022/04/28 09:55:16;;;;;;;6.10;4.07;;;;;;;;;;4980244;28;20280;-78
2022/04/28 09:58:06;;;;;;;7.17;4.27;;;;;;;;;;4989243;28;20260;-77
2022/04/28 10:00:34;;;;;;;8.73;4.10;;;;;;;;;;4959351;28;20241;-78
2022/04/28 10:03:02;;;;;;;7.70;3.87;;;;;;;;;;4991635;28;20334;-77
2022/04/28 10:05:31;;;;;;;8.07;3.97;;;;;;;;;;4958286;28;20245;-76
2022/04/28 10:08:15;;;;;;;6.90;4.00;;;;;;;;;;5004797;28;20225;-78
2022/04/28 10:10:42;;;;;;;6.78;3.92;;;;;;;;;;4989044;28;20237;-79
2022/04/28 10:13:08;;;;;;;7.57;3.63;;;;;;;;;;4993759;28;20226;-79
2022/04/28 10:16:27;;;;;;;8.93;3.87;;;;;;;;;;4982510;28;20246;-77
2022/04/28 10:19:09;;;;;;;5.70;4.50;;;;;;;;;;4983151;28;20225;-77
2022/04/28 10:21:40;;;;;;;8.23;4.57;;;;;;;;;;4977716;28;20325;-78
2022/04/28 10:32:53;;;;;;;8.10;4.27;;;;;;;;;;4993132;28;20220;-77
2022/04/28 10:35:36;;;;;;;9.17;4.37;;;;;;;;;;4984528;28;20214;-81
2022/04/28 10:38:22;;;;;;;6.03;3.97;;;;;;;;;;4977711;28;20225;-76
2022/04/28 10:41:07;;;;;;;6.63;4.15;;;;;;;;;;4980103;28;20229;-79
2022/04/28 10:43:32;;;;;;;6.10;4.13;;;;;;;;;;4991834;28;20214;-77
2022/04/28 10:46:02;;;;;;;5.63;4.10;;;;;;;;;;4981676;28;20682;-79
2022/04/28 10:48:33;;;;;;;5.47;3.93;;;;;;;;;;4988271;28;20246;-78
2022/04/28 10:51:42;;;;;;;6.40;4.60;;;;;;;;;;4977310;28;20193;-76
2022/04/28 10:54:14;;;;;;;6.15;4.25;;;;;;;;;;4981457;28;20240;-79
2022/04/28 10:56:39;;;;;;;8.60;4.78;;;;;;;;;;4991577;28;20246;-77
2022/04/28 10:59:27;;;;;;;6.97;4.45;;;;;;;;;;4984461;28;20264;-78
2022/04/28 11:01:53;;;;;;;7.83;4.33;;;;;;;;;;4969098;28;20229;-81
2022/04/28 11:04:24;;;;;;;5.60;4.40;;;;;;;;;;4958172;28;20229;-79
2022/04/28 11:11:07;;;;;;;7.18;4.10;;;;;;;;;;5040002;23;20238;-76
2022/04/28 11:13:32;;;;;;;10.87;4.40;;;;;;;;;;5043217;28;20237;-76
2022/04/28 11:15:59;;;;;;;5.78;3.83;;;;;;;;;;5012874;28;20828;-76
2022/04/28 11:18:28;;;;;;;6.33;4.07;;;;;;;;;;5028347;28;20219;-76
2022/04/28 11:21:01;;;;;;;7.25;4.20;;;;;;;;;;5017592;28;20227;-76
2022/04/28 11:23:33;;;;;;;8.15;3.97;;;;;;;;;;5037341;28;20219;-76
2022/04/28 11:28:50;;;;;;;6.50;3.88;;;;;;;;;;5068555;28;20314;-77
2022/04/28 11:31:19;;;;;;;7.63;4.13;;;;;;;;;;5026467;28;20227;-75
2022/04/28 11:33:50;;;;;;;8.90;4.47;;;;;;;;;;5046226;28;20253;-76
2022/04/28 11:36:30;;;;;;;6.57;3.78;;;;;;;;;;5063713;28;20286;-75
2022/04/28 11:41:40;;;;;;;6.38;4.15;;;;;;;;;;4823021;26;20785;-76
2022/04/28 11:44:16;;;;;;;6.07;3.85;;;;;;;;;;5067569;28;20227;-77
2022/04/28 11:46:44;;;;;;;5.20;4.20;;;;;;;;;;5025850;28;20227;-76
2022/04/28 11:49:11;;;;;;;9.65;4.47;;;;;;;;;;5035324;28;20238;-78
2022/04/28 11:51:44;;;;;;;7.35;4.28;;;;;;;;;;5037739;28;20223;-77
2022/04/28 11:54:26;;;;;;;7.00;3.63;;;;;;;;;;5020349;28;20227;-77
2022/04/28 11:57:07;;;;;;;7.97;3.90;;;;;;;;;;5045581;28;20737;-76
2022/04/28 11:59:38;;;;;;;6.13;3.95;;;;;;;;;;5002825;28;20283;-77
2022/04/28 12:02:05;;;;;;;8.98;4.30;;;;;;;;;;5011081;28;20227;-78
2022/04/28 12:04:40;;;;;;;9.27;4.78;;;;;;;;;;5033912;28;20294;-77
2022/04/28 12:07:17;;;;;;;5.32;4.22;;;;;;;;;;5047121;28;20241;-79
2022/04/28 12:15:10;;;;;;;6.22;4.13;;;;;;;;;;5019190;28;20295;-77
2022/04/28 12:20:56;;;;;;;7.38;4.25;;;;;;;;;;5034335;28;20242;-77
2022/04/28 12:23:38;;;;;;;7.72;5.05;;;;;;;;;;5035110;28;20088;-77
2022/04/28 12:26:12;;;;;;;9.77;5.68;;;;;;;;;;5019114;28;20358;-80
2022/04/28 12:28:41;;;;;;;7.70;5.57;;;;;;;;;;5028032;28;20222;-76
2022/04/28 12:31:10;;;;;;;5.90;4.93;;;;;;;;;;5025533;28;20283;-77
2022/04/28 12:33:37;;;;;;;9.73;5.60;;;;;;;;;;4996626;28;20220;-79
2022/04/28 12:36:07;;;;;;;7.00;4.68;;;;;;;;;;5027652;28;20232;-78
2022/04/28 12:38:38;;;;;;;8.80;4.32;;;;;;;;;;5020161;23;20243;-78
2022/04/28 12:41:21;;;;;;;5.70;4.55;;;;;;;;;;5052048;28;20635;-78
2022/04/28 12:43:50;;;;;;;6.55;4.45;;;;;;;;;;5028760;28;20228;-79
2022/04/28 12:46:39;;;;;;;8.60;4.65;;;;;;;;;;5019619;28;20265;-79
2022/04/28 12:49:09;;;;;;;7.80;5.60;;;;;;;;;;5029616;28;20653;-78
2022/04/28 12:51:44;;;;;;;7.05;5.57;;;;;;;;;;5015484;28;20618;-79
2022/04/28 12:54:24;;;;;;;10.55;5.70;;;;;;;;;;5050075;28;20241;-79
2022/04/28 12:57:00;;;;;;;8.73;5.75;;;;;;;;;;5027116;28;20578;-80
2022/04/28 12:59:31;;;;;;;8.00;6.10;;;;;;;;;;5020968;28;20239;-78
2022/04/28 13:01:56;;;;;;;11.35;5.43;;;;;;;;;;5002486;28;20257;-79
2022/04/28 13:04:26;;;;;;;10.13;5.40;;;;;;;;;;5007069;28;20232;-79
2022/04/28 13:06:52;;;;;;;8.75;5.55;;;;;;;;;;4994861;28;20257;-79
2022/04/28 13:09:18;;;;;;;6.03;4.88;;;;;;;;;;4998107;28;20287;-80
2022/04/28 13:11:45;;;;;;;5.70;4.82;;;;;;;;;;4996313;28;20227;-82
2022/04/28 13:14:12;;;;;;;7.82;5.15;;;;;;;;;;5020627;28;20318;-82
2022/04/28 13:16:41;;;;;;;6.10;4.00;;;;;;;;;;4997408;28;20239;-83
2022/04/28 13:19:08;;;;;;;8.38;4.90;;;;;;;;;;5004210;28;20231;-82
2022/04/28 13:21:34;;;;;;;9.00;4.80;;;;;;;;;;5006369;28;20223;-81
2022/04/28 13:23:59;;;;;;;6.20;4.18;;;;;;;;;;5034462;23;20233;-77
2022/04/28 13:26:27;;;;;;;5.47;4.30;;;;;;;;;;5048742;28;20640;-77
2022/04/28 13:28:56;;;;;;;10.00;4.80;;;;;;;;;;5031612;28;20223;-76
2022/04/28 13:31:24;;;;;;;9.10;4.50;;;;;;;;;;5027345;28;20242;-75
2022/04/28 13:33:50;;;;;;;8.63;4.28;;;;;;;;;;5001818;28;20219;-77
2022/04/28 13:36:20;;;;;;;6.57;4.45;;;;;;;;;;5004076;28;20224;-76
2022/04/28 13:44:29;;;;;;;7.32;3.65;;;;;;;;;;5025669;28;20238;-72
2022/04/28 13:46:55;;;;;;;11.82;4.30;;;;;;;;;;5017544;28;20228;-78
2022/04/28 13:49:20;;;;;;;5.43;3.85;;;;;;;;;;5010493;23;20314;-82
2022/04/28 13:51:50;;;;;;;9.35;4.25;;;;;;;;;;4951162;28;20230;-83
2022/04/28 13:54:19;;;;;;;8.05;4.50;;;;;;;;;;4967677;28;20237;-81
2022/04/28 13:56:44;;;;;;;9.93;4.30;;;;;;;;;;4942525;28;20237;-79
2022/04/28 13:59:10;;;;;;;12.82;4.57;;;;;;;;;;4966353;28;20237;-81
2022/04/28 14:01:37;;;;;;;6.15;3.97;;;;;;;;;;4951206;28;20681;-80
2022/04/28 14:04:03;;;;;;;11.75;4.35;;;;;;;;;;4943030;28;20234;-80
2022/04/28 14:06:28;;;;;;;6.93;4.60;;;;;;;;;;4946462;28;20445;-80
2022/04/28 14:08:54;;;;;;;7.43;4.20;;;;;;;;;;4959587;28;20218;-82
2022/04/28 14:11:19;;;;;;;7.78;4.55;;;;;;;;;;4950253;28;20222;-83
2022/04/28 14:13:46;;;;;;;6.85;3.60;;;;;;;;;;4976656;28;20227;-83
2022/04/28 14:16:12;;;;;;;7.82;3.90;;;;;;;;;;4949637;28;20649;-82
2022/04/28 14:18:37;;;;;;;7.07;3.85;;;;;;;;;;4952455;28;20274;-82
2022/04/28 14:21:12;;;;;;;6.53;4.03;;;;;;;;;;4951148;28;20325;-84
2022/04/28 14:23:42;;;;;;;7.72;3.78;;;;;;;;;;4930594;28;20238;-82
2022/04/28 14:26:08;;;;;;;6.47;3.97;;;;;;;;;;4950277;28;20214;-82
2022/04/28 14:28:33;;;;;;;7.18;3.88;;;;;;;;;;4941698;28;20217;-82
2022/04/28 14:30:59;;;;;;;5.88;4.32;;;;;;;;;;4978430;28;20246;-83
2022/04/28 14:33:32;;;;;;;10.00;4.43;;;;;;;;;;4962887;23;20927;-76
2022/04/28 14:35:58;;;;;;;6.28;3.58;;;;;;;;;;4983738;28;20228;-76
2022/04/28 14:38:23;;;;;;;4.28;3.83;;;;;;;;;;4979482;28;20271;-76
2022/04/28 14:41:37;;;;;;;5.88;3.90;;;;;;;;;;4976465;28;20628;-75
2022/04/28 14:44:05;;;;;;;6.78;3.95;;;;;;;;;;4965339;28;20320;-76
2022/04/28 14:46:35;;;;;;;6.55;4.22;;;;;;;;;;5003408;28;20218;-74
2022/04/28 14:52:26;;;;;;;6.50;4.10;;;;;;;;;;4990990;23;20314;-75
2022/04/28 14:54:59;;;;;;;5.30;3.85;;;;;;;;;;5041988;28;20207;-77
2022/04/28 14:57:40;;;;;;;6.07;3.90;;;;;;;;;;5027184;28;20232;-76
2022/04/28 15:00:08;;;;;;;7.22;4.30;;;;;;;;;;4975649;28;20273;-76
2022/04/28 15:02:33;;;;;;;6.03;4.10;;;;;;;;;;5026160;28;20223;-77
2022/04/28 15:04:59;;;;;;;7.00;3.78;;;;;;;;;;5015579;28;20353;-76
2022/04/28 15:07:26;;;;;;;6.90;4.40;;;;;;;;;;5010875;28;20655;-75
2022/04/28 15:09:52;;;;;;;7.35;4.80;;;;;;;;;;5032608;28;20220;-74
2022/04/28 15:12:18;;;;;;;8.05;4.55;;;;;;;;;;5003142;28;20281;-73
2022/04/28 15:14:44;;;;;;;9.02;4.78;;;;;;;;;;5005785;28;20223;-72
2022/04/28 15:17:14;;;;;;;7.72;4.65;;;;;;;;;;5017295;28;20642;-73
2022/04/28 15:19:40;;;;;;;7.28;4.07;;;;;;;;;;5031926;28;20227;-73
2022/04/28 15:22:08;;;;;;;6.63;4.18;;;;;;;;;;5006528;28;20220;-74
2022/04/28 15:24:33;;;;;;;5.22;4.10;;;;;;;;;;5038695;28;20575;-75
2022/04/28 15:27:01;;;;;;;6.32;4.40;;;;;;;;;;4992409;28;20227;-77
2022/04/28 15:29:32;;;;;;;11.07;4.72;;;;;;;;;;4999593;28;20268;-74
2022/04/28 15:32:00;;;;;;;7.68;4.40;;;;;;;;;;5016606;28;20278;-73
2022/04/28 15:37:00;;;;;;;9.95;4.47;;;;;;;;;;5021621;28;20291;-80
2022/04/28 15:39:25;;;;;;;5.88;4.13;;;;;;;;;;4983520;28;20220;-81
2022/04/28 15:41:51;;;;;;;8.02;3.90;;;;;;;;;;4973312;28;20220;-83
2022/04/28 15:44:17;;;;;;;5.80;3.90;;;;;;;;;;4962690;28;20236;-82
2022/04/28 15:46:45;;;;;;;7.60;3.90;;;;;;;;;;4989377;28;20222;-81
2022/04/28 15:49:11;;;;;;;5.93;3.58;;;;;;;;;;4960329;28;20986;-82
2022/04/28 15:51:37;;;;;;;5.03;3.65;;;;;;;;;;4962575;28;20328;-82
2022/04/28 15:54:03;;;;;;;5.30;3.42;;;;;;;;;;4949651;28;20233;-81
2022/04/28 15:56:31;;;;;;;6.38;3.38;;;;;;;;;;4972356;28;20248;-84
2022/04/28 15:58:56;;;;;;;6.38;2.92;;;;;;;;;;4957854;28;20252;-82
2022/04/28 16:02:07;;;;;;;5.18;3.50;;;;;;;;;;4964739;28;20216;-81
2022/04/28 16:04:32;;;;;;;6.15;3.53;;;;;;;;;;4981122;28;20251;-83
2022/04/28 16:07:00;;;;;;;6.60;2.97;;;;;;;;;;4956476;28;20224;-82
2022/04/28 16:09:26;;;;;;;6.30;2.72;;;;;;;;;;4974659;28;20216;-83
2022/04/28 16:11:53;;;;;;;6.65;2.65;;;;;;;;;;4978020;28;20303;-82
2022/04/28 16:14:19;;;;;;;6.35;2.63;;;;;;;;;;4978255;28;20225;-82